David J. Cooper — WDF9940 — position and weather

sailwx.info

Track history (hours):
 
Tides and Currents Weather Stations Pressure Air Temp Water Temp Dewpoint Dewpoint Depression Visibility Wind Speed Wind Dir Waves Ship Positions

David J. Cooper

Owner: CRESCENT TOWING & SALVAGE CO INC ATTN Jeff Guilott, Elmwood, LA. More information available from US FCC via Universal Licensing System and Coast Guard Vessel Documentation Center.

Last reported at 2014-Oct-01 09:17 UTC. Time now 2014-Oct-01 10:17 UTC.
Position N 29°56' W 090°21'.

Length 29 m; draft 7 m.

Type: Tug. MMSI: 367510430.

Date/timePositionNaut miles runAvg speedWind from/ knotsBaromVisibWave heightAir tempDewpointWater temp
2014-Oct-01 09:17N 29°56' W 090°21'1 0.6
2014-Oct-01 07:28N 29°56' W 090°20'2 0.3
2014-Oct-01 00:18N 29°56' W 090°22'12 1.0
2014-Sep-30 11:33N 30°03' W 090°34'1 0.5
2014-Sep-30 10:33N 30°03' W 090°35'0 0.2
2014-Sep-30 09:33N 30°03' W 090°35'0 0.4
2014-Sep-30 08:33N 30°03' W 090°34'0 0.0
2014-Sep-30 07:33N 30°03' W 090°34'0 0.0
2014-Sep-30 06:33N 30°03' W 090°34'0 0.0
2014-Sep-30 05:33N 30°03' W 090°34'0 0.0
2014-Sep-30 04:33N 30°03' W 090°34'5 5.4
2014-Sep-30 03:33N 30°02' W 090°28'5 4.4
2014-Sep-30 02:23N 29°59' W 090°24'0 0.0
2014-Sep-30 01:29N 29°59' W 090°24'0 0.3
2014-Sep-30 00:28N 29°59' W 090°24'0 0.2
2014-Sep-29 23:12N 29°59' W 090°24'3 0.1
2014-Sep-28 19:28N 29°56' W 090°21'2 1.9
2014-Sep-28 18:11N 29°56' W 090°19'0 0.1
2014-Sep-28 17:31N 29°57' W 090°19'2 0.2
2014-Sep-28 01:26N 29°56' W 090°21'1 0.5
2014-Sep-27 23:21N 29°56' W 090°20'1 1.3
2014-Sep-27 22:27N 29°56' W 090°22'0 0.2
2014-Sep-27 21:31N 29°56' W 090°22'0 0.0
2014-Sep-27 20:19N 29°56' W 090°22'1 0.2
2014-Sep-27 11:21N 29°56' W 090°20'1 0.8
2014-Sep-27 09:23N 29°57' W 090°18'0 0.4
2014-Sep-27 08:33N 29°56' W 090°19'2 0.1
2014-Sep-26 00:14N 29°56' W 090°21'4 5.6
2014-Sep-25 23:33N 29°59' W 090°24'4 0.3
2014-Sep-25 09:05N 29°56' W 090°21'4 6.7
2014-Sep-25 08:33N 29°59' W 090°24'0 0.3
2014-Sep-25 07:31N 29°59' W 090°24'1 0.0
2014-Sep-24 12:33N 29°59' W 090°24'1 0.7
2014-Sep-24 11:33N 29°59' W 090°24'0 0.0
2014-Sep-24 10:33N 29°59' W 090°24'0 0.0
2014-Sep-24 09:33N 29°59' W 090°24'0 0.0
2014-Sep-24 08:33N 29°59' W 090°24'0 0.0
2014-Sep-24 07:33N 29°59' W 090°24'0 0.0
2014-Sep-24 06:32N 29°59' W 090°24'0 0.0
2014-Sep-24 05:32N 29°59' W 090°24'0 0.0
2014-Sep-24 04:33N 29°59' W 090°24'0 0.0
2014-Sep-24 03:33N 29°59' W 090°24'0 0.0
2014-Sep-24 02:33N 29°59' W 090°24'0 0.0
2014-Sep-24 01:32N 29°59' W 090°24'0 0.0
2014-Sep-24 00:33N 29°59' W 090°24'0 0.0
2014-Sep-23 23:33N 29°59' W 090°24'4 0.4
2014-Sep-23 12:15N 29°56' W 090°20'0 0.0
2014-Sep-23 10:23N 29°56' W 090°20'0 0.0
2014-Sep-23 09:29N 29°56' W 090°20'0 0.0
2014-Sep-23 08:30N 29°56' W 090°20'0 0.0
2014-Sep-23 07:28N 29°56' W 090°20'1 1.3
2014-Sep-23 06:33N 29°56' W 090°19'1 0.2
2014-Sep-23 00:14N 29°56' W 090°20'4 0.4
2014-Sep-22 12:31N 29°59' W 090°24'4 3.9
2014-Sep-22 11:25N 29°56' W 090°20'0 0.0
2014-Sep-22 09:31N 29°56' W 090°20'0 0.0
2014-Sep-22 08:33N 29°56' W 090°20'  
Track history (hours):
 
Tides and Currents Weather Stations Pressure Air Temp Water Temp Dewpoint Dewpoint Depression Visibility Wind Speed Wind Dir Waves Ship Positions

David J. Cooper

Owner: CRESCENT TOWING & SALVAGE CO INC ATTN Jeff Guilott, Elmwood, LA. More information available from US FCC via Universal Licensing System and Coast Guard Vessel Documentation Center.

Last reported at 2014-Oct-01 09:17 UTC. Time now 2014-Oct-01 10:17 UTC.
Position N 29°56' W 090°21'.

Length 29 m; draft 7 m.

Type: Tug. MMSI: 367510430.

Date/timePositionNaut miles runAvg speedWind from/ knotsBaromVisibWave heightAir tempDewpointWater temp
2014-Oct-01 09:17N 29°56' W 090°21'1 0.6
2014-Oct-01 07:28N 29°56' W 090°20'2 0.3
2014-Oct-01 00:18N 29°56' W 090°22'12 1.0
2014-Sep-30 11:33N 30°03' W 090°34'1 0.5
2014-Sep-30 10:33N 30°03' W 090°35'0 0.2
2014-Sep-30 09:33N 30°03' W 090°35'0 0.4
2014-Sep-30 08:33N 30°03' W 090°34'0 0.0
2014-Sep-30 07:33N 30°03' W 090°34'0 0.0
2014-Sep-30 06:33N 30°03' W 090°34'0 0.0
2014-Sep-30 05:33N 30°03' W 090°34'0 0.0
2014-Sep-30 04:33N 30°03' W 090°34'5 5.4
2014-Sep-30 03:33N 30°02' W 090°28'5 4.4
2014-Sep-30 02:23N 29°59' W 090°24'0 0.0
2014-Sep-30 01:29N 29°59' W 090°24'0 0.3
2014-Sep-30 00:28N 29°59' W 090°24'0 0.2
2014-Sep-29 23:12N 29°59' W 090°24'3 0.1
2014-Sep-28 19:28N 29°56' W 090°21'2 1.9
2014-Sep-28 18:11N 29°56' W 090°19'0 0.1
2014-Sep-28 17:31N 29°57' W 090°19'2 0.2
2014-Sep-28 01:26N 29°56' W 090°21'1 0.5
2014-Sep-27 23:21N 29°56' W 090°20'1 1.3
2014-Sep-27 22:27N 29°56' W 090°22'0 0.2
2014-Sep-27 21:31N 29°56' W 090°22'0 0.0
2014-Sep-27 20:19N 29°56' W 090°22'1 0.2
2014-Sep-27 11:21N 29°56' W 090°20'1 0.8
2014-Sep-27 09:23N 29°57' W 090°18'0 0.4
2014-Sep-27 08:33N 29°56' W 090°19'2 0.1
2014-Sep-26 00:14N 29°56' W 090°21'4 5.6
2014-Sep-25 23:33N 29°59' W 090°24'4 0.3
2014-Sep-25 09:05N 29°56' W 090°21'4 6.7
2014-Sep-25 08:33N 29°59' W 090°24'0 0.3
2014-Sep-25 07:31N 29°59' W 090°24'1 0.0
2014-Sep-24 12:33N 29°59' W 090°24'1 0.7
2014-Sep-24 11:33N 29°59' W 090°24'0 0.0
2014-Sep-24 10:33N 29°59' W 090°24'0 0.0
2014-Sep-24 09:33N 29°59' W 090°24'0 0.0
2014-Sep-24 08:33N 29°59' W 090°24'0 0.0
2014-Sep-24 07:33N 29°59' W 090°24'0 0.0
2014-Sep-24 06:32N 29°59' W 090°24'0 0.0
2014-Sep-24 05:32N 29°59' W 090°24'0 0.0
2014-Sep-24 04:33N 29°59' W 090°24'0 0.0
2014-Sep-24 03:33N 29°59' W 090°24'0 0.0
2014-Sep-24 02:33N 29°59' W 090°24'0 0.0
2014-Sep-24 01:32N 29°59' W 090°24'0 0.0
2014-Sep-24 00:33N 29°59' W 090°24'0 0.0
2014-Sep-23 23:33N 29°59' W 090°24'4 0.4
2014-Sep-23 12:15N 29°56' W 090°20'0 0.0
2014-Sep-23 10:23N 29°56' W 090°20'0 0.0
2014-Sep-23 09:29N 29°56' W 090°20'0 0.0
2014-Sep-23 08:30N 29°56' W 090°20'0 0.0
2014-Sep-23 07:28N 29°56' W 090°20'1 1.3
2014-Sep-23 06:33N 29°56' W 090°19'1 0.2
2014-Sep-23 00:14N 29°56' W 090°20'4 0.4
2014-Sep-22 12:31N 29°59' W 090°24'4 3.9
2014-Sep-22 11:25N 29°56' W 090°20'0 0.0
2014-Sep-22 09:31N 29°56' W 090°20'0 0.0
2014-Sep-22 08:33N 29°56' W 090°20'  

Dump ship's entire track history